createdAt,value
2023-02-02T00:00:51.424Z,83.42
2023-02-02T00:03:37.747Z,82.86
2023-02-02T00:06:25.339Z,82.15
2023-02-02T00:09:12.564Z,82.40
2023-02-02T00:11:59.737Z,81.43
2023-02-02T00:14:45.069Z,81.42
2023-02-02T00:17:30.274Z,81.92
2023-02-02T00:20:16.178Z,81.56
2023-02-02T00:23:02.330Z,81.80
2023-02-02T00:25:49.751Z,81.34
2023-02-02T00:28:34.917Z,80.62
2023-02-02T00:31:20.246Z,80.56
2023-02-02T00:34:05.753Z,80.70
2023-02-02T00:36:51.421Z,81.46
2023-02-02T00:39:36.759Z,81.35
2023-02-02T00:42:21.918Z,81.33
2023-02-02T00:45:16.765Z,81.03
2023-02-02T00:48:02.244Z,80.99
2023-02-02T00:50:47.411Z,81.88
2023-02-02T00:53:32.940Z,82.03
2023-02-02T00:56:18.413Z,81.99
2023-02-02T00:59:03.581Z,82.86
2023-02-02T01:01:48.946Z,82.84
2023-02-02T01:04:34.323Z,83.30
2023-02-02T01:07:19.862Z,84.23
2023-02-02T01:10:06.397Z,84.82
2023-02-02T01:12:52.351Z,86.11
2023-02-02T01:15:37.878Z,87.39
2023-02-02T01:18:23.077Z,88.39
2023-02-02T01:21:11.336Z,89.22
2023-02-02T01:23:56.683Z,88.77
2023-02-02T01:26:41.946Z,88.79
2023-02-02T01:29:27.259Z,90.59
2023-02-02T01:32:12.928Z,91.28
2023-02-02T01:34:58.402Z,91.55
2023-02-02T01:37:43.802Z,91.84
2023-02-02T01:40:29.012Z,90.57
2023-02-02T01:43:26.464Z,90.90
2023-02-02T01:46:12.684Z,90.81
2023-02-02T01:49:09.297Z,90.48
2023-02-02T01:51:58.908Z,89.54
2023-02-02T01:54:54.293Z,89.51
2023-02-02T01:57:57.531Z,91.89
2023-02-02T02:00:45.090Z,93.88
2023-02-02T02:03:34.717Z,94.03
2023-02-02T02:06:20.941Z,94.09
2023-02-02T02:09:07.626Z,93.73
2023-02-02T02:11:54.334Z,93.31
2023-02-02T02:14:58.785Z,92.14
2023-02-02T02:17:59.416Z,91.43
2023-02-02T02:21:25.376Z,91.12
2023-02-02T02:24:49.614Z,90.10
2023-02-02T02:28:20.137Z,88.91
2023-02-02T02:31:27.471Z,89.19
2023-02-02T02:34:31.519Z,89.58
2023-02-02T02:37:23.549Z,90.13
2023-02-02T02:40:32.006Z,88.61
2023-02-02T02:43:30.883Z,89.11
2023-02-02T02:46:16.920Z,88.87
2023-02-02T02:49:02.572Z,88.73
2023-02-02T02:51:53.024Z,88.72
2023-02-02T02:54:53.535Z,88.33
2023-02-02T02:58:03.418Z,88.23
2023-02-02T03:00:54.123Z,87.67
2023-02-02T03:04:04.373Z,87.36
2023-02-02T03:07:05.268Z,86.48
2023-02-02T03:09:52.917Z,86.59
2023-02-02T03:12:50.189Z,85.73
2023-02-02T03:15:35.613Z,85.83
2023-02-02T03:18:25.254Z,85.29
2023-02-02T03:21:10.947Z,85.23
2023-02-02T03:23:56.440Z,85.65
2023-02-02T03:26:41.882Z,85.25
2023-02-02T03:29:28.134Z,85.54
2023-02-02T03:32:13.789Z,85.38
2023-02-02T03:34:58.916Z,86.09
2023-02-02T03:37:44.110Z,86.15
2023-02-02T03:40:30.123Z,86.93
2023-02-02T03:43:21.255Z,86.83
2023-02-02T03:46:06.481Z,87.08
2023-02-02T03:48:51.649Z,86.90
2023-02-02T03:51:37.065Z,86.55
2023-02-02T03:54:22.580Z,86.16
2023-02-02T03:57:08.139Z,86.52
2023-02-02T03:59:53.235Z,86.77
2023-02-02T04:02:39.103Z,86.35
2023-02-02T04:05:25.069Z,86.00
2023-02-02T04:08:10.432Z,85.80
2023-02-02T04:10:59.520Z,84.77
2023-02-02T04:13:45.035Z,84.90
2023-02-02T04:16:34.661Z,84.99
2023-02-02T04:19:20.124Z,85.83
2023-02-02T04:22:05.571Z,84.73
2023-02-02T04:24:51.191Z,84.12
2023-02-02T04:27:36.864Z,84.64
2023-02-02T04:30:22.137Z,84.76
2023-02-02T04:33:07.471Z,84.11
2023-02-02T04:35:52.998Z,84.55
2023-02-02T04:38:38.459Z,83.90
2023-02-02T04:41:23.924Z,83.70
2023-02-02T04:44:15.321Z,83.24
2023-02-02T04:47:00.468Z,83.12
2023-02-02T04:49:45.748Z,82.78
2023-02-02T04:52:31.202Z,83.15
2023-02-02T04:55:16.760Z,83.12
2023-02-02T04:58:02.192Z,83.51
2023-02-02T05:00:47.388Z,84.38
2023-02-02T05:03:32.837Z,84.30
2023-02-02T05:06:19.603Z,84.82
2023-02-02T05:09:04.978Z,85.46
2023-02-02T05:11:50.103Z,85.10
2023-02-02T05:14:35.477Z,85.45
2023-02-02T05:17:21.058Z,85.46
2023-02-02T05:20:06.617Z,85.79
2023-02-02T05:22:52.085Z,86.04
2023-02-02T05:25:37.512Z,86.81
2023-02-02T05:28:23.753Z,86.70
2023-02-02T05:31:10.106Z,86.62
2023-02-02T05:33:55.253Z,87.40
2023-02-02T05:36:40.439Z,85.65
2023-02-02T05:39:25.959Z,85.06
2023-02-02T05:42:11.410Z,85.03
2023-02-02T05:44:56.666Z,85.29
2023-02-02T05:47:42.064Z,85.44
2023-02-02T05:50:27.328Z,84.91
2023-02-02T05:53:21.166Z,84.67
2023-02-02T05:56:06.983Z,83.71
2023-02-02T05:58:52.351Z,82.48
2023-02-02T06:01:37.971Z,82.30
2023-02-02T06:04:23.400Z,81.70
2023-02-02T06:07:08.677Z,82.44
2023-02-02T06:09:54.191Z,81.95
2023-02-02T06:12:39.770Z,82.82
2023-02-02T06:15:27.595Z,82.58
2023-02-02T06:18:12.956Z,83.09
2023-02-02T06:20:59.219Z,84.62
2023-02-02T06:23:45.896Z,99.51
2023-02-02T06:26:31.676Z,92.10
2023-02-02T06:29:16.936Z,87.48
2023-02-02T06:32:02.315Z,83.27
2023-02-02T06:34:47.356Z,81.27
2023-02-02T06:37:34.097Z,79.76
2023-02-02T06:40:19.660Z,80.27
2023-02-02T06:43:05.110Z,80.69
2023-02-02T06:45:50.328Z,79.78
2023-02-02T06:48:35.618Z,79.93
2023-02-02T06:51:20.901Z,78.19
2023-02-02T06:54:06.558Z,78.80
2023-02-02T06:56:51.810Z,78.13
2023-02-02T06:59:38.325Z,78.55
2023-02-02T07:02:23.895Z,77.40
2023-02-02T07:05:09.378Z,77.08
2023-02-02T07:07:54.871Z,77.82
2023-02-02T07:11:13.276Z,76.39
2023-02-02T07:13:47.704Z,75.61
2023-02-02T07:16:33.448Z,73.83
2023-02-02T07:19:20.282Z,74.46
2023-02-02T07:22:06.142Z,74.62
2023-02-02T07:24:51.439Z,74.82
2023-02-02T07:27:37.595Z,75.09
2023-02-02T07:30:25.431Z,75.55
2023-02-02T07:33:10.724Z,75.80
2023-02-02T07:35:55.914Z,76.31
2023-02-02T07:38:41.133Z,76.39
2023-02-02T07:41:26.370Z,76.62
2023-02-02T07:44:16.944Z,76.68
2023-02-02T07:47:02.956Z,76.66
2023-02-02T07:49:48.110Z,76.48
2023-02-02T07:52:33.504Z,76.70
2023-02-02T07:55:19.548Z,77.25
2023-02-02T07:58:05.328Z,77.34
2023-02-02T08:00:50.814Z,79.24
2023-02-02T08:03:37.179Z,80.00
2023-02-02T08:06:28.311Z,80.24
2023-02-02T08:09:14.049Z,80.95
2023-02-02T08:12:02.283Z,82.25
2023-02-02T08:14:47.456Z,81.82
2023-02-02T08:17:32.704Z,81.88
2023-02-02T08:20:18.628Z,81.71
2023-02-02T08:23:04.275Z,81.57
2023-02-02T08:25:50.886Z,81.42
2023-02-02T08:28:36.524Z,81.83
2023-02-02T08:31:26.850Z,81.38
2023-02-02T08:34:13.967Z,80.70
2023-02-02T08:36:59.321Z,80.11
2023-02-02T08:39:45.029Z,79.56
2023-02-02T08:42:30.379Z,79.80
2023-02-02T08:46:01.424Z,79.95
2023-02-02T08:48:21.631Z,78.85
2023-02-02T08:51:08.289Z,78.83
2023-02-02T08:53:53.411Z,78.42
2023-02-02T08:56:39.151Z,78.86
2023-02-02T08:59:24.507Z,78.10
2023-02-02T09:02:13.744Z,77.35
2023-02-02T09:04:58.954Z,76.31
2023-02-02T09:07:44.367Z,76.97
2023-02-02T09:10:31.952Z,76.47
2023-02-02T09:13:17.192Z,76.20
2023-02-02T09:16:04.403Z,75.26
2023-02-02T09:18:50.126Z,74.67
2023-02-02T09:21:37.064Z,75.20
2023-02-02T09:24:22.369Z,74.87
2023-02-02T09:27:07.804Z,75.25
2023-02-02T09:29:53.560Z,75.22
2023-02-02T09:32:39.060Z,74.28
2023-02-02T09:35:24.752Z,74.60
2023-02-02T09:38:10.089Z,74.64
2023-02-02T09:40:55.783Z,74.83
2023-02-02T09:44:11.970Z,73.67
2023-02-02T09:46:57.431Z,72.36
2023-02-02T09:49:56.533Z,71.54
2023-02-02T09:53:07.732Z,71.31
2023-02-02T09:56:00.195Z,70.90
2023-02-02T09:58:54.685Z,71.22
2023-02-02T10:01:45.059Z,71.32
2023-02-02T10:04:35.105Z,71.34
2023-02-02T10:07:29.479Z,70.30
2023-02-02T10:10:18.153Z,68.49
2023-02-02T10:13:10.450Z,69.45
2023-02-02T10:16:19.048Z,68.85
2023-02-02T10:19:09.621Z,68.15
2023-02-02T10:22:02.549Z,67.84
2023-02-02T10:24:47.768Z,67.40
2023-02-02T10:27:38.794Z,65.91
2023-02-02T10:30:36.427Z,66.35
2023-02-02T10:33:40.619Z,66.95
2023-02-02T10:36:47.464Z,66.94
2023-02-02T10:39:53.405Z,65.97
2023-02-02T10:43:18.700Z,64.36
2023-02-02T10:46:05.967Z,62.38
2023-02-02T10:49:12.440Z,61.79
2023-02-02T10:52:11.130Z,60.89
2023-02-02T10:55:14.701Z,61.54
2023-02-02T10:58:08.487Z,61.16
2023-02-02T11:00:56.093Z,61.95
2023-02-02T11:03:41.556Z,61.99
2023-02-02T11:06:45.427Z,62.57
2023-02-02T11:09:45.697Z,62.57
2023-02-02T11:12:35.755Z,61.25
2023-02-02T11:15:30.263Z,62.04
2023-02-02T11:18:30.177Z,60.32
2023-02-02T11:21:19.517Z,60.31
2023-02-02T11:24:07.478Z,59.06
2023-02-02T11:27:05.523Z,59.56
2023-02-02T11:29:57.041Z,59.64
2023-02-02T11:32:42.167Z,59.04
2023-02-02T11:35:31.305Z,59.53
2023-02-02T11:38:17.552Z,60.16
2023-02-02T11:41:07.119Z,58.69
2023-02-02T11:43:54.982Z,59.42
2023-02-02T11:46:40.552Z,59.28
2023-02-02T11:49:26.187Z,59.90
2023-02-02T11:52:32.640Z,59.85
2023-02-02T11:55:26.668Z,60.13
2023-02-02T11:58:19.874Z,60.83
2023-02-02T12:01:06.737Z,61.61
2023-02-02T12:03:54.245Z,62.51
2023-02-02T12:06:43.253Z,64.34
2023-02-02T12:09:28.533Z,64.97
2023-02-02T12:12:25.302Z,67.71
2023-02-02T12:15:10.681Z,70.61
2023-02-02T12:18:14.830Z,76.99
2023-02-02T12:21:07.529Z,82.76
2023-02-02T12:24:18.812Z,85.37
2023-02-02T12:27:44.843Z,85.79
2023-02-02T12:30:54.972Z,83.04
2023-02-02T12:34:02.149Z,85.28
2023-02-02T12:37:00.230Z,84.48
2023-02-02T12:40:16.259Z,80.71
2023-02-02T12:43:27.892Z,77.62
2023-02-02T12:46:21.207Z,78.35
2023-02-02T12:49:38.129Z,75.46
2023-02-02T12:52:30.309Z,73.57
2023-02-02T12:55:34.636Z,72.03
2023-02-02T12:58:31.976Z,72.08
2023-02-02T13:01:27.225Z,71.77
2023-02-02T13:04:54.277Z,67.97
2023-02-02T13:07:58.103Z,67.79
2023-02-02T13:10:47.483Z,68.57
2023-02-02T13:13:39.627Z,65.81
2023-02-02T13:16:27.148Z,64.78
2023-02-02T13:19:27.219Z,63.81
2023-02-02T13:22:16.929Z,62.78
2023-02-02T13:25:05.013Z,63.70
2023-02-02T13:27:52.672Z,63.03
2023-02-02T13:30:39.560Z,63.44
2023-02-02T13:33:34.014Z,63.16
2023-02-02T13:36:25.981Z,64.01
2023-02-02T13:39:29.746Z,63.93
2023-02-02T13:42:46.986Z,63.14
2023-02-02T13:46:16.701Z,62.41
2023-02-02T13:49:21.767Z,62.16
2023-02-02T13:52:19.044Z,61.02
2023-02-02T13:55:41.612Z,61.45
2023-02-02T13:58:35.834Z,61.32
2023-02-02T14:01:23.215Z,61.44
2023-02-02T14:04:30.695Z,61.06
2023-02-02T14:07:16.194Z,62.01
2023-02-02T14:10:03.245Z,61.93
2023-02-02T14:12:49.123Z,62.26
2023-02-02T14:15:40.041Z,61.94
2023-02-02T14:18:50.854Z,61.95
2023-02-02T14:21:36.225Z,61.80
2023-02-02T14:24:30.630Z,62.37
2023-02-02T14:27:16.071Z,62.50
2023-02-02T14:30:13.997Z,62.48
2023-02-02T14:33:21.231Z,60.78
2023-02-02T14:36:14.012Z,61.16
2023-02-02T14:39:21.580Z,61.91
2023-02-02T14:42:37.910Z,61.52
2023-02-02T14:45:32.569Z,61.39
2023-02-02T14:48:22.446Z,61.94
2023-02-02T14:51:23.590Z,60.85
2023-02-02T14:54:20.726Z,60.13
2023-02-02T14:57:25.822Z,59.96
2023-02-02T15:00:22.942Z,60.62
2023-02-02T15:03:46.119Z,61.35
2023-02-02T15:06:34.874Z,60.99
2023-02-02T15:09:20.226Z,60.90
2023-02-02T15:12:09.151Z,60.83
2023-02-02T15:15:19.035Z,61.59
2023-02-02T15:18:18.431Z,61.79
2023-02-02T15:21:07.770Z,61.43
2023-02-02T15:23:53.324Z,61.54
2023-02-02T15:26:42.835Z,61.97
2023-02-02T15:29:50.692Z,62.34
2023-02-02T15:32:36.381Z,62.62
2023-02-02T15:35:28.380Z,62.88
2023-02-02T15:38:17.625Z,62.08
2023-02-02T15:41:07.056Z,61.94
2023-02-02T15:43:53.332Z,61.45
2023-02-02T15:46:39.464Z,60.99
2023-02-02T15:49:34.888Z,60.21
2023-02-02T15:52:28.487Z,60.29
2023-02-02T15:55:35.567Z,61.10
2023-02-02T15:58:27.815Z,61.24
2023-02-02T16:01:17.984Z,60.87
2023-02-02T16:04:40.149Z,61.32
2023-02-02T16:07:33.659Z,61.12
2023-02-02T16:10:21.316Z,60.73
2023-02-02T16:13:07.223Z,60.04
2023-02-02T16:15:59.244Z,60.24
2023-02-02T16:18:45.466Z,60.26
2023-02-02T16:21:33.287Z,61.24
2023-02-02T16:24:27.872Z,60.28
2023-02-02T16:27:18.015Z,61.38
2023-02-02T16:30:09.349Z,60.67
2023-02-02T16:32:55.454Z,60.34
2023-02-02T16:35:43.579Z,64.65
2023-02-02T16:38:35.303Z,83.51
2023-02-02T16:41:34.201Z,64.55
2023-02-02T16:44:52.272Z,60.87
2023-02-02T16:47:38.872Z,58.78
2023-02-02T16:50:29.944Z,59.55
2023-02-02T16:53:24.257Z,59.42
2023-02-02T16:56:11.617Z,60.77
2023-02-02T16:59:01.131Z,60.32
2023-02-02T17:01:51.708Z,60.84
2023-02-02T17:04:37.399Z,60.17
2023-02-02T17:07:23.670Z,60.82
2023-02-02T17:10:14.140Z,60.89
2023-02-02T17:13:00.892Z,61.97
2023-02-02T17:15:51.997Z,61.43
2023-02-02T17:18:37.493Z,61.80
2023-02-02T17:21:25.408Z,62.34
2023-02-02T17:24:11.597Z,62.81
2023-02-02T17:26:57.346Z,63.09
2023-02-02T17:29:42.461Z,63.06
2023-02-02T17:32:27.936Z,63.33
2023-02-02T17:35:25.769Z,62.88
2023-02-02T17:38:11.119Z,63.37
2023-02-02T17:41:01.494Z,63.77
2023-02-02T17:43:47.152Z,63.14
2023-02-02T17:46:33.305Z,63.52
2023-02-02T17:49:20.389Z,63.70
2023-02-02T17:52:05.706Z,63.91
2023-02-02T17:54:51.392Z,64.47
2023-02-02T17:57:36.474Z,64.03
2023-02-02T18:00:24.835Z,64.34
2023-02-02T18:03:13.774Z,64.54
2023-02-02T18:06:01.662Z,64.31
2023-02-02T18:08:46.938Z,64.42
2023-02-02T18:11:34.793Z,64.30
2023-02-02T18:14:20.145Z,64.22
2023-02-02T18:17:05.313Z,64.24
2023-02-02T18:19:52.953Z,64.73
2023-02-02T18:22:38.203Z,64.12
2023-02-02T18:25:25.726Z,63.78
2023-02-02T18:28:11.662Z,64.77
2023-02-02T18:30:57.132Z,65.35
2023-02-02T18:33:43.905Z,65.32
2023-02-02T18:36:29.389Z,65.47
2023-02-02T18:39:14.600Z,65.63
2023-02-02T18:42:00.254Z,66.04
2023-02-02T18:44:45.478Z,65.52
2023-02-02T18:47:31.033Z,65.90
2023-02-02T18:50:16.641Z,65.80
2023-02-02T18:53:01.839Z,65.32
2023-02-02T18:55:48.882Z,65.01
2023-02-02T18:58:34.850Z,65.65
2023-02-02T19:01:21.025Z,66.12
2023-02-02T19:04:06.601Z,66.94
2023-02-02T19:07:10.454Z,67.94
2023-02-02T19:09:55.674Z,67.91
2023-02-02T19:12:41.313Z,67.46
2023-02-02T19:15:26.913Z,67.04
2023-02-02T19:18:17.949Z,67.16
2023-02-02T19:21:03.811Z,67.59
2023-02-02T19:23:49.148Z,67.66
2023-02-02T19:26:38.119Z,67.66
2023-02-02T19:29:25.885Z,67.10
2023-02-02T19:32:18.319Z,66.96
2023-02-02T19:35:06.964Z,67.31
2023-02-02T19:37:59.683Z,68.18
2023-02-02T19:40:45.015Z,67.72
2023-02-02T19:43:30.432Z,67.65
2023-02-02T19:46:24.212Z,67.63
2023-02-02T19:49:36.756Z,67.86
2023-02-02T19:52:24.546Z,66.95
2023-02-02T19:55:34.680Z,66.90
2023-02-02T19:58:21.036Z,66.79
2023-02-02T20:01:19.862Z,66.63
2023-02-02T20:04:13.106Z,66.13
2023-02-02T20:07:00.004Z,66.20
2023-02-02T20:09:45.295Z,65.61
2023-02-02T20:12:31.815Z,65.99
2023-02-02T20:15:33.429Z,65.00
2023-02-02T20:18:40.211Z,64.23
2023-02-02T20:21:28.708Z,64.80
2023-02-02T20:24:18.212Z,64.72
2023-02-02T20:27:25.182Z,65.30
2023-02-02T20:30:27.719Z,64.89
2023-02-02T20:33:24.844Z,64.62
2023-02-02T20:36:34.667Z,64.77
2023-02-02T20:39:26.305Z,65.24
2023-02-02T20:42:11.677Z,65.23
2023-02-02T20:44:58.246Z,64.97
2023-02-02T20:47:45.417Z,65.25
2023-02-02T20:50:30.989Z,65.35
2023-02-02T20:53:16.696Z,65.74
2023-02-02T20:56:02.790Z,66.24
2023-02-02T20:58:48.082Z,66.34
2023-02-02T21:01:33.461Z,67.09
2023-02-02T21:04:18.927Z,67.32
2023-02-02T21:07:04.367Z,67.00
2023-02-02T21:09:50.958Z,66.88
2023-02-02T21:12:36.063Z,67.24
2023-02-02T21:15:21.245Z,67.68
2023-02-02T21:18:06.588Z,68.22
2023-02-02T21:20:52.143Z,68.28
2023-02-02T21:23:37.245Z,68.96
2023-02-02T21:26:26.884Z,69.28
2023-02-02T21:29:12.216Z,69.32
2023-02-02T21:32:01.672Z,69.78
2023-02-02T21:34:49.128Z,70.72
2023-02-02T21:37:37.212Z,71.15
2023-02-02T21:40:29.632Z,71.29
2023-02-02T21:43:17.708Z,71.70
2023-02-02T21:46:03.513Z,72.25
2023-02-02T21:48:49.028Z,72.04
2023-02-02T21:51:37.450Z,72.88
2023-02-02T21:54:28.403Z,73.87
2023-02-02T21:57:19.090Z,73.44
2023-02-02T22:00:30.829Z,74.32
2023-02-02T22:03:31.725Z,74.27
2023-02-02T22:06:51.552Z,74.47
2023-02-02T22:09:42.794Z,74.38
2023-02-02T22:12:28.551Z,73.67
2023-02-02T22:15:21.646Z,74.44
2023-02-02T22:18:22.842Z,74.52
2023-02-02T22:21:07.838Z,75.38
2023-02-02T22:23:53.426Z,74.81
2023-02-02T22:26:38.666Z,75.26
2023-02-02T22:29:24.536Z,75.60
2023-02-02T22:32:10.119Z,76.19
2023-02-02T22:34:55.439Z,75.79
2023-02-02T22:37:40.735Z,75.84
2023-02-02T22:40:26.633Z,76.15
2023-02-02T22:43:13.438Z,76.18
2023-02-02T22:45:58.931Z,76.28
2023-02-02T22:48:44.322Z,76.64
2023-02-02T22:51:29.800Z,76.25
2023-02-02T22:54:15.233Z,75.80
2023-02-02T22:57:00.627Z,76.39
2023-02-02T22:59:46.137Z,76.33
2023-02-02T23:02:31.922Z,76.57
2023-02-02T23:05:18.672Z,75.86
2023-02-02T23:08:04.307Z,76.24
2023-02-02T23:10:49.877Z,76.04
2023-02-02T23:13:35.036Z,76.44
2023-02-02T23:16:20.417Z,76.63
2023-02-02T23:19:05.849Z,76.61
2023-02-02T23:21:51.284Z,76.94
2023-02-02T23:24:37.004Z,77.17
2023-02-02T23:27:22.534Z,77.51
2023-02-02T23:30:09.319Z,77.72
2023-02-02T23:32:54.597Z,77.82
2023-02-02T23:35:39.991Z,77.89
2023-02-02T23:38:25.108Z,78.00
2023-02-02T23:41:10.475Z,77.86
2023-02-02T23:43:55.862Z,78.64
2023-02-02T23:46:41.728Z,78.22
2023-02-02T23:49:27.289Z,78.41
2023-02-02T23:52:12.916Z,78.87
2023-02-02T23:54:59.512Z,78.71
2023-02-02T23:57:44.885Z,78.53
